Time;durP1;ratioP1;P1;durP2;ratioP2;P2;SDS_P1;SDS_P2;PMS_P1;PMS_P2;Temp;Humidity;BMP_temperature;BMP_pressure;BME280_temperature;BME280_humidity;BME280_pressure;Samples;Min_cycle;Max_cycle;Signal;HPM_P1;HPM_P2
2022/04/28 00:01:43;;;;;;;;;;;;;;;;;;5119442;27;19919;-78
2022/04/28 00:04:09;;;;;;;;;;;;;;;;;;5119139;27;19916;-77
2022/04/28 00:06:34;;;;;;;;;;;;;;;;;;5137220;27;20247;-78
2022/04/28 00:09:02;;;;;;;;;;;;;;;;;;5137033;27;19922;-77
2022/04/28 00:11:27;;;;;;;;;;;;;;;;;;5137159;27;19912;-77
2022/04/28 00:13:52;;;;;;;;;;;;;;;;;;5137292;27;19918;-76
2022/04/28 00:16:17;;;;;;;;;;;;;;;;;;5137402;27;19912;-77
2022/04/28 00:18:45;;;;;;;;;;;;;;;;;;5137367;27;19915;-77
2022/04/28 00:21:10;;;;;;;;;;;;;;;;;;5137115;27;19923;-77
2022/04/28 00:23:35;;;;;;;;;;;;;;;;;;5118573;27;19915;-77
2022/04/28 00:26:01;;;;;;;;;;;;;;;;;;5136746;27;19911;-76
2022/04/28 00:28:28;;;;;;;;;;;;;;;;;;5137344;27;19923;-77
2022/04/28 00:30:53;;;;;;;;;;;;;;;;;;5136728;27;19934;-77
2022/04/28 00:33:20;;;;;;;;;;;;;;;;;;5118661;27;19964;-77
2022/04/28 00:35:50;;;;;;;;;;;;;;;;;;5136624;27;19915;-77
2022/04/28 00:38:15;;;;;;;;;;;;;;;;;;5140254;27;19912;-77
2022/04/28 00:40:40;;;;;;;;;;;;;;;;;;5137133;27;19916;-73
2022/04/28 00:43:21;;;;;;;;;;;;;;;;;;5136330;27;20260;-73
2022/04/28 00:45:49;;;;;;;;;;;;;;;;;;5136289;27;19930;-73
2022/04/28 00:50:59;;;;;;;;;;;;;;;;;;5136558;27;19922;-75
2022/04/28 00:53:24;;;;;;;;;;;;;;;;;;5118535;27;19927;-75
2022/04/28 00:55:50;;;;;;;;;;;;;;;;;;5118162;27;20340;-74
2022/04/28 00:58:15;;;;;;;;;;;;;;;;;;5136175;27;20043;-72
2022/04/28 01:00:40;;;;;;;;;;;;;;;;;;5136176;27;19968;-72
2022/04/28 01:03:07;;;;;;;;;;;;;;;;;;5136080;27;19912;-72
2022/04/28 01:05:33;;;;;;;;;;;;;;;;;;5136579;28;19985;-73
2022/04/28 01:08:00;;;;;;;;;;;;;;;;;;5136049;27;19911;-72
2022/04/28 01:10:25;;;;;;;;;;;;;;;;;;5101265;28;20321;-72
2022/04/28 01:12:51;;;;;;;;;;;;;;;;;;5136343;27;19946;-72
2022/04/28 01:15:17;;;;;;;;;;;;;;;;;;5118013;28;20351;-72
2022/04/28 01:17:42;;;;;;;;;;;;;;;;;;5117870;28;19911;-73
2022/04/28 01:20:07;;;;;;;;;;;;;;;;;;5137569;28;19922;-74
2022/04/28 01:22:32;;;;;;;;;;;;;;;;;;5118208;28;19923;-75
2022/04/28 01:25:08;;;;;;;;;;;;;;;;;;5135919;28;19927;-76
2022/04/28 01:27:36;;;;;;;;;;;;;;;;;;5118544;28;20324;-74
2022/04/28 01:30:10;;;;;;;;;;;;;;;;;;5136210;28;19911;-75
2022/04/28 01:32:48;;;;;;;;;;;;;;;;;;5136354;28;19922;-75
2022/04/28 01:35:13;;;;;;;;;;;;;;;;;;5135835;27;19951;-75
2022/04/28 01:37:38;;;;;;;;;;;;;;;;;;5121600;27;19911;-74
2022/04/28 01:40:06;;;;;;;;;;;;;;;;;;5139977;27;20005;-75
2022/04/28 01:42:32;;;;;;;;;;;;;;;;;;5122048;27;19911;-75
2022/04/28 01:44:59;;;;;;;;;;;;;;;;;;5121619;27;19920;-75
2022/04/28 01:47:27;;;;;;;;;;;;;;;;;;5139810;27;19911;-75
2022/04/28 01:49:52;;;;;;;;;;;;;;;;;;5140066;27;19911;-74
2022/04/28 01:55:04;;;;;;;;;;;;;;;;;;5140049;27;19922;-74
2022/04/28 01:57:29;;;;;;;;;;;;;;;;;;5140150;27;19912;-75
2022/04/28 01:59:56;;;;;;;;;;;;;;;;;;5121626;27;20015;-75
2022/04/28 02:02:21;;;;;;;;;;;;;;;;;;5121926;27;19911;-75
2022/04/28 02:04:47;;;;;;;;;;;;;;;;;;5139597;27;19926;-75
2022/04/28 02:07:15;;;;;;;;;;;;;;;;;;5139854;27;19912;-75
2022/04/28 02:09:43;;;;;;;;;;;;;;;;;;5139331;27;19915;-75
2022/04/28 02:12:13;;;;;;;;;;;;;;;;;;5139639;27;19969;-75
2022/04/28 02:14:40;;;;;;;;;;;;;;;;;;5139333;27;20218;-75
2022/04/28 02:17:06;;;;;;;;;;;;;;;;;;5121944;27;19961;-75
2022/04/28 02:19:31;;;;;;;;;;;;;;;;;;5139504;27;19919;-75
2022/04/28 02:21:56;;;;;;;;;;;;;;;;;;5139737;27;20242;-75
2022/04/28 02:24:24;;;;;;;;;;;;;;;;;;5139364;27;19926;-75
2022/04/28 02:26:49;;;;;;;;;;;;;;;;;;5139261;27;19912;-75
2022/04/28 02:29:17;;;;;;;;;;;;;;;;;;5139074;27;20235;-74
2022/04/28 02:31:42;;;;;;;;;;;;;;;;;;5120889;27;19919;-75
2022/04/28 02:34:10;;;;;;;;;;;;;;;;;;5139178;27;19911;-75
2022/04/28 02:36:40;;;;;;;;;;;;;;;;;;5138786;27;19911;-75
2022/04/28 02:39:05;;;;;;;;;;;;;;;;;;5138805;27;19911;-75
2022/04/28 02:41:30;;;;;;;;;;;;;;;;;;5120683;27;20229;-75
2022/04/28 02:43:55;;;;;;;;;;;;;;;;;;5138646;27;20340;-75
2022/04/28 02:46:21;;;;;;;;;;;;;;;;;;5138445;27;19972;-75
2022/04/28 02:48:46;;;;;;;;;;;;;;;;;;5120534;27;20364;-75
2022/04/28 02:51:15;;;;;;;;;;;;;;;;;;5103828;27;19911;-74
2022/04/28 02:53:43;;;;;;;;;;;;;;;;;;5138741;27;20342;-75
2022/04/28 02:56:08;;;;;;;;;;;;;;;;;;5138810;27;19919;-75
2022/04/28 02:58:36;;;;;;;;;;;;;;;;;;5138425;27;19916;-74
2022/04/28 03:01:01;;;;;;;;;;;;;;;;;;5138387;27;19960;-74
2022/04/28 03:03:27;;;;;;;;;;;;;;;;;;5120229;27;19915;-74
2022/04/28 03:11:23;;;;;;;;;;;;;;;;;;5138425;27;20350;-75
2022/04/28 03:13:48;;;;;;;;;;;;;;;;;;5138500;27;20296;-75
2022/04/28 03:16:14;;;;;;;;;;;;;;;;;;5138628;27;19915;-73
2022/04/28 03:18:39;;;;;;;;;;;;;;;;;;5138078;27;20014;-75
2022/04/28 03:21:08;;;;;;;;;;;;;;;;;;5138093;27;20005;-75
2022/04/28 03:23:33;;;;;;;;;;;;;;;;;;5138455;27;20002;-75
2022/04/28 03:26:00;;;;;;;;;;;;;;;;;;5119815;27;19962;-74
2022/04/28 03:28:28;;;;;;;;;;;;;;;;;;5137923;27;19911;-74
2022/04/28 03:30:54;;;;;;;;;;;;;;;;;;5137698;27;19919;-74
2022/04/28 03:33:19;;;;;;;;;;;;;;;;;;5137962;27;19974;-75
2022/04/28 03:35:44;;;;;;;;;;;;;;;;;;5137617;27;20002;-76
2022/04/28 03:38:11;;;;;;;;;;;;;;;;;;5137949;27;19911;-74
2022/04/28 03:40:37;;;;;;;;;;;;;;;;;;5137618;27;19911;-75
2022/04/28 03:43:03;;;;;;;;;;;;;;;;;;5137585;27;19912;-74
2022/04/28 03:45:28;;;;;;;;;;;;;;;;;;5137313;27;20344;-75
2022/04/28 03:47:53;;;;;;;;;;;;;;;;;;5137304;27;20324;-74
2022/04/28 03:50:18;;;;;;;;;;;;;;;;;;5120291;27;19964;-74
2022/04/28 03:52:46;;;;;;;;;;;;;;;;;;5137431;27;19915;-74
2022/04/28 03:55:11;;;;;;;;;;;;;;;;;;5137603;27;19911;-74
2022/04/28 03:57:39;;;;;;;;;;;;;;;;;;5119091;27;19918;-74
2022/04/28 04:00:04;;;;;;;;;;;;;;;;;;5136445;27;20002;-74
2022/04/28 04:02:30;;;;;;;;;;;;;;;;;;5136739;27;19965;-74
2022/04/28 04:04:55;;;;;;;;;;;;;;;;;;5119554;27;20343;-76
2022/04/28 04:07:22;;;;;;;;;;;;;;;;;;5137017;27;20323;-76
2022/04/28 04:09:50;;;;;;;;;;;;;;;;;;5137037;27;20280;-75
2022/04/28 04:12:15;;;;;;;;;;;;;;;;;;5137026;27;19911;-74
2022/04/28 04:14:40;;;;;;;;;;;;;;;;;;5137077;27;19911;-74
2022/04/28 04:17:06;;;;;;;;;;;;;;;;;;5136948;27;19998;-73
2022/04/28 04:19:31;;;;;;;;;;;;;;;;;;5137213;27;19934;-74
2022/04/28 04:21:58;;;;;;;;;;;;;;;;;;5137093;27;19911;-74
2022/04/28 04:24:24;;;;;;;;;;;;;;;;;;5118535;27;20026;-73
2022/04/28 04:26:49;;;;;;;;;;;;;;;;;;5136974;27;20365;-73
2022/04/28 04:29:14;;;;;;;;;;;;;;;;;;5136685;27;20243;-74
2022/04/28 04:34:23;;;;;;;;;;;;;;;;;;5136675;27;20313;-74
2022/04/28 04:36:50;;;;;;;;;;;;;;;;;;5136574;27;19911;-73
2022/04/28 04:39:18;;;;;;;;;;;;;;;;;;5136554;27;19916;-74
2022/04/28 04:41:43;;;;;;;;;;;;;;;;;;5136661;27;20286;-74
2022/04/28 04:44:13;;;;;;;;;;;;;;;;;;5118206;27;19959;-74
2022/04/28 04:46:38;;;;;;;;;;;;;;;;;;5136965;27;19964;-74
2022/04/28 04:49:03;;;;;;;;;;;;;;;;;;5136364;27;19915;-74
2022/04/28 04:51:28;;;;;;;;;;;;;;;;;;5118226;27;19911;-73
2022/04/28 04:53:54;;;;;;;;;;;;;;;;;;5118179;27;19922;-74
2022/04/28 04:56:19;;;;;;;;;;;;;;;;;;5136595;27;19912;-74
2022/04/28 04:58:44;;;;;;;;;;;;;;;;;;5136139;27;20425;-74
2022/04/28 05:01:09;;;;;;;;;;;;;;;;;;5136203;27;20006;-74
2022/04/28 05:03:35;;;;;;;;;;;;;;;;;;5136099;27;19911;-73
2022/04/28 05:06:02;;;;;;;;;;;;;;;;;;5118399;27;20293;-73
2022/04/28 05:08:27;;;;;;;;;;;;;;;;;;5136149;27;19919;-73
2022/04/28 05:10:55;;;;;;;;;;;;;;;;;;5136300;27;19916;-74
2022/04/28 05:13:20;;;;;;;;;;;;;;;;;;5136130;27;19911;-77
2022/04/28 05:15:47;;;;;;;;;;;;;;;;;;5118629;28;19918;-74
2022/04/28 05:18:15;;;;;;;;;;;;;;;;;;5136253;28;20259;-74
2022/04/28 05:20:40;;;;;;;;;;;;;;;;;;5118464;28;19911;-75
2022/04/28 05:23:07;;;;;;;;;;;;;;;;;;5136132;28;20225;-74
2022/04/28 05:25:33;;;;;;;;;;;;;;;;;;5118705;28;19915;-74
2022/04/28 05:27:58;;;;;;;;;;;;;;;;;;5136423;28;19911;-75
2022/04/28 05:30:24;;;;;;;;;;;;;;;;;;5118388;28;19923;-74
2022/04/28 05:32:49;;;;;;;;;;;;;;;;;;5117734;28;19961;-74
2022/04/28 05:35:16;;;;;;;;;;;;;;;;;;5135849;28;19923;-74
2022/04/28 05:37:44;;;;;;;;;;;;;;;;;;5135842;28;19915;-74
2022/04/28 05:40:09;;;;;;;;;;;;;;;;;;5135847;28;20014;-74
2022/04/28 05:48:02;;;;;;;;;;;;;;;;;;5120708;28;20006;-74
2022/04/28 05:50:27;;;;;;;;;;;;;;;;;;5117663;28;19959;-74
2022/04/28 05:52:53;;;;;;;;;;;;;;;;;;5117744;28;19926;-73
2022/04/28 05:55:18;;;;;;;;;;;;;;;;;;5117654;28;20031;-74
2022/04/28 05:57:43;;;;;;;;;;;;;;;;;;5135761;28;19937;-74
2022/04/28 06:00:09;;;;;;;;;;;;;;;;;;5135824;28;20418;-74
2022/04/28 06:02:35;;;;;;;;;;;;;;;;;;5136308;28;19923;-74
2022/04/28 06:05:00;;;;;;;;;;;;;;;;;;5118065;28;20019;-74
2022/04/28 06:07:26;;;;;;;;;;;;;;;;;;5135564;28;19915;-74
2022/04/28 06:09:51;;;;;;;;;;;;;;;;;;5135509;28;20026;-73
2022/04/28 06:12:17;;;;;;;;;;;;;;;;;;5117960;28;19964;-74
2022/04/28 06:14:42;;;;;;;;;;;;;;;;;;5135588;28;19941;-73
2022/04/28 06:17:10;;;;;;;;;;;;;;;;;;5117851;28;19984;-74
2022/04/28 06:19:37;;;;;;;;;;;;;;;;;;5135557;28;19970;-75
2022/04/28 06:22:04;;;;;;;;;;;;;;;;;;5136730;27;19911;-75
2022/04/28 06:24:30;;;;;;;;;;;;;;;;;;5139087;27;19976;-75
2022/04/28 06:26:55;;;;;;;;;;;;;;;;;;5121305;27;19911;-75
2022/04/28 06:29:20;;;;;;;;;;;;;;;;;;5139155;27;20304;-74
2022/04/28 06:31:45;;;;;;;;;;;;;;;;;;5139352;27;20293;-75
2022/04/28 06:34:11;;;;;;;;;;;;;;;;;;5139018;27;19984;-75
2022/04/28 06:36:36;;;;;;;;;;;;;;;;;;5139219;27;20306;-76
2022/04/28 06:39:04;;;;;;;;;;;;;;;;;;5138963;27;19911;-74
2022/04/28 06:41:31;;;;;;;;;;;;;;;;;;5139164;27;20010;-76
2022/04/28 06:43:59;;;;;;;;;;;;;;;;;;5103819;27;19927;-75
2022/04/28 06:46:24;;;;;;;;;;;;;;;;;;5138674;27;19919;-76
2022/04/28 06:48:49;;;;;;;;;;;;;;;;;;5138855;27;19922;-76
2022/04/28 06:51:15;;;;;;;;;;;;;;;;;;5138807;27;19926;-76
2022/04/28 06:53:40;;;;;;;;;;;;;;;;;;5138557;27;20352;-76
2022/04/28 06:56:06;;;;;;;;;;;;;;;;;;5121016;27;19937;-75
2022/04/28 06:58:31;;;;;;;;;;;;;;;;;;5120394;27;20302;-76
2022/04/28 07:00:57;;;;;;;;;;;;;;;;;;5138566;27;20274;-75
2022/04/28 07:03:22;;;;;;;;;;;;;;;;;;5138398;27;19915;-75
2022/04/28 07:05:48;;;;;;;;;;;;;;;;;;5138255;27;19968;-75
2022/04/28 07:08:13;;;;;;;;;;;;;;;;;;5120447;27;19954;-75
2022/04/28 07:10:40;;;;;;;;;;;;;;;;;;5120063;27;20359;-74
2022/04/28 07:13:17;;;;;;;;;;;;;;;;;;5138241;27;19954;-76
2022/04/28 07:18:45;;;;;;;;;;;;;;;;;;5138190;27;19926;-75
2022/04/28 07:21:10;;;;;;;;;;;;;;;;;;5138283;27;20250;-75
2022/04/28 07:23:35;;;;;;;;;;;;;;;;;;5119853;27;20236;-75
2022/04/28 07:26:00;;;;;;;;;;;;;;;;;;5138152;27;19911;-75
2022/04/28 07:28:26;;;;;;;;;;;;;;;;;;5138142;27;20315;-75
2022/04/28 07:30:53;;;;;;;;;;;;;;;;;;5137872;27;19912;-75
2022/04/28 07:33:18;;;;;;;;;;;;;;;;;;5102309;28;20236;-75
2022/04/28 07:35:43;;;;;;;;;;;;;;;;;;5137876;27;19915;-74
2022/04/28 07:38:09;;;;;;;;;;;;;;;;;;5138411;27;19923;-74
2022/04/28 07:40:35;;;;;;;;;;;;;;;;;;5102380;27;19916;-73
2022/04/28 07:43:00;;;;;;;;;;;;;;;;;;5137597;27;20333;-74
2022/04/28 07:45:25;;;;;;;;;;;;;;;;;;5119521;27;19937;-73
2022/04/28 07:47:51;;;;;;;;;;;;;;;;;;5119371;27;20325;-74
2022/04/28 07:50:19;;;;;;;;;;;;;;;;;;5119419;27;20006;-74
2022/04/28 07:52:44;;;;;;;;;;;;;;;;;;5137349;27;19925;-74
2022/04/28 07:55:12;;;;;;;;;;;;;;;;;;5137736;27;19915;-75
2022/04/28 07:57:37;;;;;;;;;;;;;;;;;;5137357;27;19923;-74
2022/04/28 08:00:06;;;;;;;;;;;;;;;;;;5137224;27;19915;-74
2022/04/28 08:02:32;;;;;;;;;;;;;;;;;;5137140;27;20056;-75
2022/04/28 08:04:57;;;;;;;;;;;;;;;;;;5137280;27;19915;-75
2022/04/28 08:07:22;;;;;;;;;;;;;;;;;;5119507;27;20303;-73
2022/04/28 08:09:48;;;;;;;;;;;;;;;;;;5137395;27;19915;-75
2022/04/28 08:12:13;;;;;;;;;;;;;;;;;;5137180;27;19912;-74
2022/04/28 08:14:41;;;;;;;;;;;;;;;;;;5137348;27;19911;-74
2022/04/28 08:17:06;;;;;;;;;;;;;;;;;;5137058;27;19915;-74
2022/04/28 08:19:32;;;;;;;;;;;;;;;;;;5136898;27;20374;-74
2022/04/28 08:21:58;;;;;;;;;;;;;;;;;;5137365;27;19911;-75
2022/04/28 08:24:23;;;;;;;;;;;;;;;;;;5136715;27;20124;-75
2022/04/28 08:26:48;;;;;;;;;;;;;;;;;;5136731;27;19922;-75
2022/04/28 08:29:16;;;;;;;;;;;;;;;;;;5137405;27;19915;-76
2022/04/28 08:31:44;;;;;;;;;;;;;;;;;;5137046;27;20048;-75
2022/04/28 08:34:10;;;;;;;;;;;;;;;;;;5136744;27;19911;-75
2022/04/28 08:36:35;;;;;;;;;;;;;;;;;;5136562;27;19912;-75
2022/04/28 08:39:01;;;;;;;;;;;;;;;;;;5136853;27;20010;-75
2022/04/28 08:41:38;;;;;;;;;;;;;;;;;;5136508;27;19921;-75
2022/04/28 08:44:04;;;;;;;;;;;;;;;;;;5118999;27;20386;-75
2022/04/28 08:49:16;;;;;;;;;;;;;;;;;;5121317;27;20248;-73
2022/04/28 08:51:44;;;;;;;;;;;;;;;;;;5136365;27;19911;-73
2022/04/28 08:54:10;;;;;;;;;;;;;;;;;;5136826;27;19911;-72
2022/04/28 08:56:35;;;;;;;;;;;;;;;;;;5118045;27;19981;-72
2022/04/28 08:59:03;;;;;;;;;;;;;;;;;;5118092;27;19920;-72
2022/04/28 09:01:28;;;;;;;;;;;;;;;;;;5135991;27;19915;-74
2022/04/28 09:06:57;;;;;;;;;;;;;;;;;;5136186;27;20385;-75
2022/04/28 09:09:23;;;;;;;;;;;;;;;;;;5118130;27;19911;-75
2022/04/28 09:11:50;;;;;;;;;;;;;;;;;;5118124;27;19980;-76
2022/04/28 09:14:20;;;;;;;;;;;;;;;;;;5118417;27;19919;-75
2022/04/28 09:16:45;;;;;;;;;;;;;;;;;;5118787;28;19922;-80
2022/04/28 09:19:14;;;;;;;;;;;;;;;;;;5136265;28;19912;-75
2022/04/28 09:21:42;;;;;;;;;;;;;;;;;;5136189;28;19990;-76
2022/04/28 09:24:09;;;;;;;;;;;;;;;;;;5136931;28;19967;-76
2022/04/28 09:26:39;;;;;;;;;;;;;;;;;;5136373;28;19931;-78
2022/04/28 09:29:06;;;;;;;;;;;;;;;;;;5118352;28;20373;-77
2022/04/28 09:31:34;;;;;;;;;;;;;;;;;;5135936;28;19968;-77
2022/04/28 09:34:18;;;;;;;;;;;;;;;;;;5136245;28;19919;-78
2022/04/28 09:36:46;;;;;;;;;;;;;;;;;;5117870;28;19919;-77
2022/04/28 09:39:13;;;;;;;;;;;;;;;;;;5135905;28;19920;-77
2022/04/28 09:44:24;;;;;;;;;;;;;;;;;;5136035;28;19930;-77
2022/04/28 09:46:50;;;;;;;;;;;;;;;;;;5117813;28;19916;-76
2022/04/28 09:49:20;;;;;;;;;;;;;;;;;;5135936;28;19912;-77
2022/04/28 09:51:45;;;;;;;;;;;;;;;;;;5104085;28;20259;-76
2022/04/28 09:54:11;;;;;;;;;;;;;;;;;;5135828;28;19911;-77
2022/04/28 09:56:37;;;;;;;;;;;;;;;;;;5136047;27;20308;-76
2022/04/28 09:59:05;;;;;;;;;;;;;;;;;;5105537;27;20239;-78
2022/04/28 10:01:31;;;;;;;;;;;;;;;;;;5139660;27;19916;-77
2022/04/28 10:03:59;;;;;;;;;;;;;;;;;;5121750;27;19925;-77
2022/04/28 10:06:24;;;;;;;;;;;;;;;;;;5139723;27;19915;-77
2022/04/28 10:08:53;;;;;;;;;;;;;;;;;;5139933;27;20251;-76
2022/04/28 10:11:23;;;;;;;;;;;;;;;;;;5122054;27;19922;-77
2022/04/28 10:13:49;;;;;;;;;;;;;;;;;;5121320;27;19911;-77
2022/04/28 10:16:14;;;;;;;;;;;;;;;;;;5139436;27;19941;-77
2022/04/28 10:18:49;;;;;;;;;;;;;;;;;;5139250;27;19911;-78
2022/04/28 10:21:20;;;;;;;;;;;;;;;;;;5104282;27;19915;-77
2022/04/28 10:35:04;;;;;;;;;;;;;;;;;;5123833;27;20317;-78
2022/04/28 10:37:30;;;;;;;;;;;;;;;;;;5138942;27;19912;-79
2022/04/28 10:39:55;;;;;;;;;;;;;;;;;;5120997;27;19912;-78
2022/04/28 10:42:42;;;;;;;;;;;;;;;;;;5103644;27;19965;-78
2022/04/28 10:45:20;;;;;;;;;;;;;;;;;;5138595;27;19919;-77
2022/04/28 10:47:45;;;;;;;;;;;;;;;;;;5120708;27;20281;-77
2022/04/28 10:50:30;;;;;;;;;;;;;;;;;;5138795;27;19912;-78
2022/04/28 10:52:56;;;;;;;;;;;;;;;;;;5139011;27;19943;-78
2022/04/28 10:55:23;;;;;;;;;;;;;;;;;;5138640;27;20347;-78
2022/04/28 10:57:49;;;;;;;;;;;;;;;;;;5138709;27;20041;-78
2022/04/28 11:00:27;;;;;;;;;;;;;;;;;;5138423;27;20360;-78
2022/04/28 11:02:57;;;;;;;;;;;;;;;;;;5120784;27;19916;-78
2022/04/28 11:05:27;;;;;;;;;;;;;;;;;;5138363;27;20026;-77
2022/04/28 11:07:52;;;;;;;;;;;;;;;;;;5120118;27;19922;-78
2022/04/28 11:10:17;;;;;;;;;;;;;;;;;;5103543;27;20232;-77
2022/04/28 11:12:45;;;;;;;;;;;;;;;;;;5120122;27;19922;-78
2022/04/28 11:15:13;;;;;;;;;;;;;;;;;;5138175;27;19911;-78
2022/04/28 11:17:39;;;;;;;;;;;;;;;;;;5120340;27;20331;-78
2022/04/28 11:20:11;;;;;;;;;;;;;;;;;;5120365;27;19980;-77
2022/04/28 11:22:39;;;;;;;;;;;;;;;;;;5138228;27;19911;-77
2022/04/28 11:25:12;;;;;;;;;;;;;;;;;;5137694;27;19993;-77
2022/04/28 11:27:40;;;;;;;;;;;;;;;;;;5137967;27;20373;-78
2022/04/28 11:30:08;;;;;;;;;;;;;;;;;;5120299;27;19984;-78
2022/04/28 11:32:33;;;;;;;;;;;;;;;;;;5138166;27;19951;-76
2022/04/28 11:34:59;;;;;;;;;;;;;;;;;;5119922;27;20343;-77
2022/04/28 11:37:25;;;;;;;;;;;;;;;;;;5119610;27;19923;-75
2022/04/28 11:39:52;;;;;;;;;;;;;;;;;;5102775;27;19922;-76
2022/04/28 11:42:18;;;;;;;;;;;;;;;;;;5137740;27;19976;-78
2022/04/28 11:44:56;;;;;;;;;;;;;;;;;;5102602;27;19991;-77
2022/04/28 11:47:24;;;;;;;;;;;;;;;;;;5137650;27;20366;-78
2022/04/28 11:50:01;;;;;;;;;;;;;;;;;;5137806;27;19911;-78
2022/04/28 11:52:31;;;;;;;;;;;;;;;;;;5119645;27;19911;-77
2022/04/28 11:55:04;;;;;;;;;;;;;;;;;;5120359;27;19912;-77
2022/04/28 11:57:30;;;;;;;;;;;;;;;;;;5137875;27;20020;-78
2022/04/28 11:59:55;;;;;;;;;;;;;;;;;;5138257;27;19971;-80
2022/04/28 12:02:31;;;;;;;;;;;;;;;;;;5119826;27;20002;-76
2022/04/28 12:04:56;;;;;;;;;;;;;;;;;;5137663;27;20316;-77
2022/04/28 12:07:22;;;;;;;;;;;;;;;;;;5119132;27;20374;-77
2022/04/28 12:15:21;;;;;;;;;;;;;;;;;;5121615;27;20013;-76
2022/04/28 12:20:39;;;;;;;;;;;;;;;;;;5136303;27;19923;-76
2022/04/28 12:23:05;;;;;;;;;;;;;;;;;;5136723;27;20420;-76
2022/04/28 12:25:36;;;;;;;;;;;;;;;;;;5118294;27;19991;-76
2022/04/28 12:43:59;;;;;;;;;;;;;;;;;;5137028;27;20056;-77
2022/04/28 12:49:56;;;;;;;;;;;;;;;;;;5136435;27;19918;-76
2022/04/28 12:52:40;;;;;;;;;;;;;;;;;;5136715;27;20344;-76
2022/04/28 12:55:08;;;;;;;;;;;;;;;;;;5136244;27;19911;-77
2022/04/28 13:06:45;;;;;;;;;;;;;;;;;;5134928;27;19919;-76
2022/04/28 13:15:48;;;;;;;;;;;;;;;;;;5136011;27;20002;-77
2022/04/28 13:18:13;;;;;;;;;;;;;;;;;;5136018;27;19977;-76
2022/04/28 13:20:40;;;;;;;;;;;;;;;;;;5136184;28;20336;-76
2022/04/28 13:26:09;;;;;;;;;;;;;;;;;;5135977;28;19942;-77
2022/04/28 13:28:52;;;;;;;;;;;;;;;;;;5101066;28;20320;-76
2022/04/28 13:34:23;;;;;;;;;;;;;;;;;;5073102;27;20008;-77
2022/04/28 13:36:51;;;;;;;;;;;;;;;;;;5140475;27;20290;-77
2022/04/28 13:39:18;;;;;;;;;;;;;;;;;;5139808;27;19911;-77
2022/04/28 13:41:46;;;;;;;;;;;;;;;;;;5140435;27;19961;-77
2022/04/28 13:44:14;;;;;;;;;;;;;;;;;;5139881;27;20336;-77
2022/04/28 13:46:42;;;;;;;;;;;;;;;;;;5139878;27;19911;-77
2022/04/28 13:49:09;;;;;;;;;;;;;;;;;;5139842;27;20340;-77
2022/04/28 13:51:34;;;;;;;;;;;;;;;;;;5139801;27;19998;-76
2022/04/28 13:54:00;;;;;;;;;;;;;;;;;;5139894;27;19950;-77
2022/04/28 13:56:25;;;;;;;;;;;;;;;;;;5139585;27;20411;-77
2022/04/28 13:58:50;;;;;;;;;;;;;;;;;;5121328;27;19911;-77
2022/04/28 14:01:19;;;;;;;;;;;;;;;;;;5121759;27;19977;-77
2022/04/28 14:03:47;;;;;;;;;;;;;;;;;;5121815;27;20006;-76
2022/04/28 14:06:15;;;;;;;;;;;;;;;;;;5140068;27;19968;-77
2022/04/28 14:08:41;;;;;;;;;;;;;;;;;;5139436;27;19925;-77
2022/04/28 14:11:07;;;;;;;;;;;;;;;;;;5121261;27;20375;-76
2022/04/28 14:13:33;;;;;;;;;;;;;;;;;;5139330;27;19912;-76
2022/04/28 14:15:58;;;;;;;;;;;;;;;;;;5122005;27;19981;-76
2022/04/28 14:18:24;;;;;;;;;;;;;;;;;;5140048;27;19916;-77
2022/04/28 14:20:50;;;;;;;;;;;;;;;;;;5121153;27;19915;-76
2022/04/28 14:23:15;;;;;;;;;;;;;;;;;;5120986;27;19911;-77
2022/04/28 14:25:43;;;;;;;;;;;;;;;;;;5139023;27;19945;-76
2022/04/28 14:28:10;;;;;;;;;;;;;;;;;;5139138;27;19915;-76
2022/04/28 14:30:36;;;;;;;;;;;;;;;;;;5138990;27;19919;-76
2022/04/28 14:33:02;;;;;;;;;;;;;;;;;;5138871;27;20054;-76
2022/04/28 14:35:29;;;;;;;;;;;;;;;;;;5120875;27;19915;-77
2022/04/28 14:37:54;;;;;;;;;;;;;;;;;;5120875;27;19934;-77
2022/04/28 14:40:22;;;;;;;;;;;;;;;;;;5120712;27;20336;-77
2022/04/28 14:42:49;;;;;;;;;;;;;;;;;;5138229;27;19911;-77
2022/04/28 14:45:17;;;;;;;;;;;;;;;;;;5138564;27;19923;-77
2022/04/28 14:47:42;;;;;;;;;;;;;;;;;;5138895;27;20317;-77
2022/04/28 14:52:54;;;;;;;;;;;;;;;;;;5138836;27;20361;-77
2022/04/28 14:55:20;;;;;;;;;;;;;;;;;;5120561;27;19937;-77
2022/04/28 14:57:48;;;;;;;;;;;;;;;;;;5120420;27;19915;-77
2022/04/28 15:00:14;;;;;;;;;;;;;;;;;;5138680;27;19922;-78
2022/04/28 15:02:43;;;;;;;;;;;;;;;;;;5138851;27;19950;-77
2022/04/28 15:05:09;;;;;;;;;;;;;;;;;;5121178;27;19996;-76
2022/04/28 15:07:34;;;;;;;;;;;;;;;;;;5120758;27;19923;-77
2022/04/28 15:10:00;;;;;;;;;;;;;;;;;;5120765;27;19915;-78
2022/04/28 15:12:29;;;;;;;;;;;;;;;;;;5139073;27;19911;-75
2022/04/28 15:14:59;;;;;;;;;;;;;;;;;;5121171;27;19926;-76
2022/04/28 15:17:24;;;;;;;;;;;;;;;;;;5138813;27;20248;-76
2022/04/28 15:19:52;;;;;;;;;;;;;;;;;;5103734;27;19921;-76
2022/04/28 15:22:17;;;;;;;;;;;;;;;;;;5138633;27;20235;-76
2022/04/28 15:24:48;;;;;;;;;;;;;;;;;;5139019;27;19916;-76
2022/04/28 15:27:13;;;;;;;;;;;;;;;;;;5138739;27;20399;-76
2022/04/28 15:29:38;;;;;;;;;;;;;;;;;;5119466;27;19969;-76
2022/04/28 15:32:06;;;;;;;;;;;;;;;;;;5139109;27;19961;-77
2022/04/28 15:34:33;;;;;;;;;;;;;;;;;;5120431;27;19911;-76
2022/04/28 15:36:58;;;;;;;;;;;;;;;;;;5121342;27;19923;-75
2022/04/28 15:39:24;;;;;;;;;;;;;;;;;;5120525;27;19915;-76
2022/04/28 15:41:50;;;;;;;;;;;;;;;;;;5138701;27;19962;-76
2022/04/28 15:44:15;;;;;;;;;;;;;;;;;;5120183;27;19931;-77
2022/04/28 15:46:43;;;;;;;;;;;;;;;;;;5138122;27;19950;-76
2022/04/28 15:49:11;;;;;;;;;;;;;;;;;;5119524;27;19911;-77
2022/04/28 15:51:38;;;;;;;;;;;;;;;;;;5138103;27;19911;-76
2022/04/28 15:54:06;;;;;;;;;;;;;;;;;;5102594;28;20061;-76
2022/04/28 15:56:34;;;;;;;;;;;;;;;;;;5120119;27;19911;-76
2022/04/28 15:59:00;;;;;;;;;;;;;;;;;;5120203;27;20346;-76
2022/04/28 16:01:28;;;;;;;;;;;;;;;;;;5138202;27;19922;-78
2022/04/28 16:03:53;;;;;;;;;;;;;;;;;;5137765;27;19911;-77
2022/04/28 16:06:21;;;;;;;;;;;;;;;;;;5137621;27;19911;-77
2022/04/28 16:08:46;;;;;;;;;;;;;;;;;;5120486;27;19937;-77
2022/04/28 16:11:12;;;;;;;;;;;;;;;;;;5137675;27;20336;-77
2022/04/28 16:13:40;;;;;;;;;;;;;;;;;;5137852;27;19911;-78
2022/04/28 16:16:05;;;;;;;;;;;;;;;;;;5137633;27;19922;-76
2022/04/28 16:18:31;;;;;;;;;;;;;;;;;;5137332;27;19911;-75
2022/04/28 16:20:59;;;;;;;;;;;;;;;;;;5120314;27;19912;-76
2022/04/28 16:23:25;;;;;;;;;;;;;;;;;;5119363;27;19975;-76
2022/04/28 16:25:50;;;;;;;;;;;;;;;;;;5119370;27;20307;-76
2022/04/28 16:28:15;;;;;;;;;;;;;;;;;;5137329;27;20275;-77
2022/04/28 16:30:41;;;;;;;;;;;;;;;;;;5118867;27;20355;-77
2022/04/28 16:33:09;;;;;;;;;;;;;;;;;;5119243;27;19930;-77
2022/04/28 16:35:36;;;;;;;;;;;;;;;;;;5119396;27;19972;-78
2022/04/28 16:38:02;;;;;;;;;;;;;;;;;;5137033;27;19915;-78
2022/04/28 16:40:35;;;;;;;;;;;;;;;;;;5101998;27;19967;-77
2022/04/28 16:43:02;;;;;;;;;;;;;;;;;;5120240;27;20244;-77
2022/04/28 16:45:28;;;;;;;;;;;;;;;;;;5136779;27;19927;-78
2022/04/28 16:47:53;;;;;;;;;;;;;;;;;;5136706;27;19918;-77
2022/04/28 16:50:20;;;;;;;;;;;;;;;;;;5136742;27;20060;-78
2022/04/28 16:52:46;;;;;;;;;;;;;;;;;;5136718;27;19915;-78
2022/04/28 16:55:15;;;;;;;;;;;;;;;;;;5136514;27;20343;-78
2022/04/28 16:57:43;;;;;;;;;;;;;;;;;;5102024;27;20014;-77
2022/04/28 17:00:12;;;;;;;;;;;;;;;;;;5118614;27;20003;-77
2022/04/28 17:05:23;;;;;;;;;;;;;;;;;;5122650;27;19979;-76
2022/04/28 17:07:48;;;;;;;;;;;;;;;;;;5136959;27;19922;-77
2022/04/28 17:10:14;;;;;;;;;;;;;;;;;;5136553;27;19911;-77
2022/04/28 17:12:40;;;;;;;;;;;;;;;;;;5136680;27;19911;-77
2022/04/28 17:15:05;;;;;;;;;;;;;;;;;;5118384;28;20395;-77
2022/04/28 17:17:31;;;;;;;;;;;;;;;;;;5136545;27;19922;-77
2022/04/28 17:23:01;;;;;;;;;;;;;;;;;;5136379;28;19958;-77
2022/04/28 17:25:28;;;;;;;;;;;;;;;;;;5136381;28;20336;-77
2022/04/28 17:27:57;;;;;;;;;;;;;;;;;;5118735;28;19912;-77
2022/04/28 17:30:22;;;;;;;;;;;;;;;;;;5136654;28;19935;-77
2022/04/28 17:32:48;;;;;;;;;;;;;;;;;;5136860;28;20362;-77
2022/04/28 17:35:13;;;;;;;;;;;;;;;;;;5118503;28;20344;-77
2022/04/28 17:37:40;;;;;;;;;;;;;;;;;;5137243;28;19991;-77
2022/04/28 17:40:06;;;;;;;;;;;;;;;;;;5118482;28;19911;-77
2022/04/28 17:42:33;;;;;;;;;;;;;;;;;;5117993;28;19934;-77
2022/04/28 17:44:59;;;;;;;;;;;;;;;;;;5136103;28;19920;-77
2022/04/28 17:47:24;;;;;;;;;;;;;;;;;;5137380;28;19915;-77
2022/04/28 17:49:49;;;;;;;;;;;;;;;;;;5135934;28;19911;-77
2022/04/28 17:52:14;;;;;;;;;;;;;;;;;;5135925;28;19915;-75
2022/04/28 17:54:41;;;;;;;;;;;;;;;;;;5135834;28;20348;-76
2022/04/28 17:59:54;;;;;;;;;;;;;;;;;;5120480;28;19923;-76
2022/04/28 18:02:25;;;;;;;;;;;;;;;;;;5135685;28;19915;-76
2022/04/28 18:04:51;;;;;;;;;;;;;;;;;;5136965;28;19916;-76
2022/04/28 18:07:16;;;;;;;;;;;;;;;;;;5117387;28;19938;-77
2022/04/28 18:09:42;;;;;;;;;;;;;;;;;;5117494;28;19911;-76
2022/04/28 18:12:10;;;;;;;;;;;;;;;;;;5117471;28;19955;-76
2022/04/28 18:14:35;;;;;;;;;;;;;;;;;;5135508;28;19933;-76
2022/04/28 18:17:03;;;;;;;;;;;;;;;;;;5117751;27;20403;-76
2022/04/28 18:19:28;;;;;;;;;;;;;;;;;;5121133;27;19922;-77
2022/04/28 18:21:54;;;;;;;;;;;;;;;;;;5139760;27;19912;-75
2022/04/28 18:24:19;;;;;;;;;;;;;;;;;;5121181;27;19958;-76
2022/04/28 18:26:45;;;;;;;;;;;;;;;;;;5121227;27;19972;-76